createdAt,value
2022-12-23T00:01:26.854Z,5.57
2022-12-23T00:03:59.645Z,5.66
2022-12-23T00:06:27.444Z,5.65
2022-12-23T00:08:58.594Z,5.69
2022-12-23T00:11:27.550Z,5.71
2022-12-23T00:14:21.598Z,5.70
2022-12-23T00:16:52.714Z,5.69
2022-12-23T00:19:20.132Z,5.67
2022-12-23T00:21:49.888Z,5.65
2022-12-23T00:24:21.060Z,5.67
2022-12-23T00:26:48.859Z,5.65
2022-12-23T00:29:17.558Z,5.55
2022-12-23T00:31:44.514Z,5.78
2022-12-23T00:34:12.786Z,5.79
2022-12-23T00:36:40.783Z,5.80
2022-12-23T00:39:30.898Z,5.86
2022-12-23T00:42:18.750Z,5.81
2022-12-23T00:44:53.072Z,5.78
2022-12-23T00:47:38.607Z,5.74
2022-12-23T00:50:10.717Z,5.69
2022-12-23T00:52:40.854Z,5.75
2022-12-23T00:55:14.279Z,5.68
2022-12-23T00:57:41.379Z,5.74
2022-12-23T01:00:13.754Z,5.81
2022-12-23T01:02:59.810Z,5.90
2022-12-23T01:05:38.834Z,5.97
2022-12-23T01:08:08.495Z,5.99
2022-12-23T01:10:39.887Z,6.01
2022-12-23T01:13:08.960Z,6.07
2022-12-23T01:15:37.511Z,6.07
2022-12-23T01:18:04.733Z,5.99
2022-12-23T01:20:42.042Z,6.00
2022-12-23T01:23:14.786Z,5.98
2022-12-23T01:25:43.882Z,6.01
2022-12-23T01:28:25.123Z,5.98
2022-12-23T01:30:59.530Z,5.92
2022-12-23T01:33:26.535Z,5.85
2022-12-23T01:35:59.962Z,5.81
2022-12-23T01:38:27.198Z,5.83
2022-12-23T01:40:57.750Z,5.92
2022-12-23T01:43:44.962Z,5.95
2022-12-23T01:46:15.012Z,5.91
2022-12-23T01:48:49.109Z,5.86
2022-12-23T01:51:19.929Z,5.87
2022-12-23T01:53:50.002Z,5.83
2022-12-23T01:56:27.210Z,5.80
2022-12-23T01:58:57.914Z,5.79
2022-12-23T02:01:50.670Z,5.82
2022-12-23T02:04:20.955Z,5.84
2022-12-23T02:07:09.150Z,5.86
2022-12-23T02:09:38.494Z,5.86
2022-12-23T02:12:33.226Z,5.90
2022-12-23T02:15:52.198Z,5.75
2022-12-23T02:18:48.388Z,5.91
2022-12-23T02:21:33.274Z,5.79
2022-12-23T02:24:44.960Z,5.73
2022-12-23T02:27:26.518Z,5.64
2022-12-23T02:30:30.145Z,5.62
2022-12-23T02:33:38.522Z,5.60
2022-12-23T02:36:20.748Z,5.55
2022-12-23T02:38:59.574Z,5.57
2022-12-23T02:41:37.334Z,5.71
2022-12-23T02:44:12.967Z,5.74
2022-12-23T02:46:46.493Z,5.78
2022-12-23T02:49:23.559Z,5.69
2022-12-23T02:51:54.552Z,5.73
2022-12-23T02:54:28.243Z,5.76
2022-12-23T02:57:03.253Z,5.75
2022-12-23T02:59:35.323Z,5.71
2022-12-23T03:02:08.781Z,5.76
2022-12-23T03:04:40.394Z,5.76
2022-12-23T03:07:18.808Z,5.79
2022-12-23T03:09:51.427Z,5.95
2022-12-23T03:12:29.394Z,6.11
2022-12-23T03:15:08.781Z,6.16
2022-12-23T03:17:51.064Z,6.18
2022-12-23T03:20:27.599Z,6.23
2022-12-23T03:23:03.571Z,6.11
2022-12-23T03:25:35.859Z,5.99
2022-12-23T03:28:15.772Z,5.90
2022-12-23T03:30:50.955Z,5.92
2022-12-23T03:33:24.037Z,5.93
2022-12-23T03:35:56.701Z,5.99
2022-12-23T03:38:25.476Z,5.89
2022-12-23T03:40:56.276Z,5.98
2022-12-23T03:43:28.672Z,6.03
2022-12-23T03:45:59.575Z,6.05
2022-12-23T03:48:34.761Z,6.10
2022-12-23T03:51:09.982Z,6.02
2022-12-23T03:53:45.926Z,6.04
2022-12-23T03:56:17.916Z,6.19
2022-12-23T03:58:49.754Z,6.12
2022-12-23T04:01:24.068Z,6.05
2022-12-23T04:04:07.923Z,6.10
2022-12-23T04:06:41.114Z,6.02
2022-12-23T04:09:16.648Z,5.87
2022-12-23T04:11:47.789Z,5.80
2022-12-23T04:14:17.556Z,5.89
2022-12-23T04:16:44.824Z,5.90
2022-12-23T04:19:13.416Z,5.96
2022-12-23T04:21:42.061Z,5.97
2022-12-23T04:24:10.339Z,6.02
2022-12-23T04:26:42.132Z,5.85
2022-12-23T04:29:18.440Z,5.87
2022-12-23T04:31:45.298Z,5.89
2022-12-23T04:34:16.400Z,5.94
2022-12-23T04:36:46.115Z,5.93
2022-12-23T04:39:24.472Z,5.85
2022-12-23T04:42:00.629Z,5.91
2022-12-23T04:44:27.874Z,5.94
2022-12-23T04:46:54.826Z,5.85
2022-12-23T04:49:24.745Z,5.82
2022-12-23T04:51:54.576Z,5.81
2022-12-23T04:54:27.106Z,5.96
2022-12-23T04:56:54.112Z,6.04
2022-12-23T04:59:24.307Z,6.07
2022-12-23T05:01:51.349Z,6.14
2022-12-23T05:04:18.904Z,6.14
2022-12-23T05:06:47.368Z,6.17
2022-12-23T05:09:16.340Z,6.23
2022-12-23T05:11:43.215Z,6.29
2022-12-23T05:14:12.299Z,6.13
2022-12-23T05:16:39.656Z,6.01
2022-12-23T05:19:10.001Z,5.92
2022-12-23T05:21:39.959Z,5.91
2022-12-23T05:24:09.064Z,5.89
2022-12-23T05:26:35.940Z,5.89
2022-12-23T05:29:03.370Z,5.92
2022-12-23T05:31:30.782Z,5.96
2022-12-23T05:34:05.761Z,5.94
2022-12-23T05:36:33.514Z,5.92
2022-12-23T05:39:00.779Z,6.01
2022-12-23T05:41:29.020Z,6.12
2022-12-23T05:43:57.702Z,6.05
2022-12-23T05:46:27.059Z,5.99
2022-12-23T05:48:56.875Z,5.95
2022-12-23T05:51:24.267Z,5.71
2022-12-23T05:53:54.327Z,5.83
2022-12-23T05:56:21.229Z,5.84
2022-12-23T05:58:55.702Z,5.82
2022-12-23T06:01:22.591Z,5.84
2022-12-23T06:03:49.919Z,5.89
2022-12-23T06:06:16.948Z,5.96
2022-12-23T06:08:45.273Z,5.94
2022-12-23T06:11:13.129Z,6.25
2022-12-23T06:13:43.376Z,6.29
2022-12-23T06:16:17.589Z,6.35
2022-12-23T06:18:47.871Z,6.32
2022-12-23T06:21:14.829Z,6.28
2022-12-23T06:23:42.032Z,6.25
2022-12-23T06:26:08.970Z,6.25
2022-12-23T06:28:39.092Z,6.27
2022-12-23T06:31:10.533Z,6.24
2022-12-23T06:33:39.264Z,6.27
2022-12-23T06:36:11.084Z,6.27
2022-12-23T06:38:38.370Z,6.34
2022-12-23T06:41:09.162Z,6.35
2022-12-23T06:43:36.642Z,6.35
2022-12-23T06:46:06.449Z,6.41
2022-12-23T06:48:45.236Z,6.42
2022-12-23T06:51:15.161Z,6.45
2022-12-23T06:53:42.483Z,6.43
2022-12-23T06:56:17.356Z,6.45
2022-12-23T06:58:44.759Z,6.47
2022-12-23T07:01:17.123Z,6.51
2022-12-23T07:03:50.329Z,6.58
2022-12-23T07:06:19.715Z,6.70
2022-12-23T07:08:46.988Z,6.67
2022-12-23T07:11:13.939Z,6.64
2022-12-23T07:13:41.239Z,6.59
2022-12-23T07:16:13.298Z,6.63
2022-12-23T07:18:41.286Z,6.63
2022-12-23T07:21:19.993Z,6.62
2022-12-23T07:23:54.717Z,6.52
2022-12-23T07:26:21.677Z,6.81
2022-12-23T07:28:49.132Z,6.89
2022-12-23T07:31:17.557Z,7.07
2022-12-23T07:33:47.652Z,7.13
2022-12-23T07:36:15.948Z,7.24
2022-12-23T07:38:43.156Z,7.30
2022-12-23T07:41:10.055Z,7.36
2022-12-23T07:43:37.259Z,7.40
2022-12-23T07:46:07.227Z,7.42
2022-12-23T07:48:34.508Z,7.59
2022-12-23T07:51:02.038Z,7.61
2022-12-23T07:53:30.840Z,7.56
2022-12-23T07:55:59.888Z,7.62
2022-12-23T07:58:29.005Z,7.62
2022-12-23T08:01:00.670Z,7.58
2022-12-23T08:03:28.184Z,7.58
2022-12-23T08:06:02.824Z,7.65
2022-12-23T08:08:31.837Z,7.69
2022-12-23T08:11:00.250Z,7.70
2022-12-23T08:13:30.687Z,7.65
2022-12-23T08:15:59.424Z,7.70
2022-12-23T08:18:29.663Z,7.65
2022-12-23T08:20:57.683Z,7.63
2022-12-23T08:23:32.923Z,7.67
2022-12-23T08:26:01.480Z,7.68
2022-12-23T08:28:29.336Z,7.68
2022-12-23T08:31:05.137Z,7.76
2022-12-23T08:33:32.479Z,7.76
2022-12-23T08:36:03.231Z,7.79
2022-12-23T08:38:38.551Z,7.84
2022-12-23T08:41:09.384Z,7.92
2022-12-23T08:43:39.691Z,8.03
2022-12-23T08:46:08.529Z,8.16
2022-12-23T08:48:36.282Z,8.15
2022-12-23T08:51:07.469Z,8.28
2022-12-23T08:53:46.643Z,8.37
2022-12-23T08:56:18.181Z,8.51
2022-12-23T08:58:48.189Z,8.75
2022-12-23T09:01:17.084Z,8.93
2022-12-23T09:03:45.077Z,9.04
2022-12-23T09:06:21.864Z,9.09
2022-12-23T09:08:55.227Z,9.09
2022-12-23T09:11:27.797Z,9.17
2022-12-23T09:13:56.211Z,9.16
2022-12-23T09:16:23.431Z,9.34
2022-12-23T09:18:50.794Z,9.37
2022-12-23T09:21:27.437Z,9.21
2022-12-23T09:23:56.632Z,9.23
2022-12-23T09:26:25.944Z,9.23
2022-12-23T09:28:53.346Z,9.31
2022-12-23T09:31:21.508Z,9.27
2022-12-23T09:33:52.885Z,9.29
2022-12-23T09:36:36.664Z,9.40
2022-12-23T09:39:07.376Z,9.50
2022-12-23T09:41:48.410Z,9.61
2022-12-23T09:44:30.947Z,9.87
2022-12-23T09:47:02.050Z,9.97
2022-12-23T09:49:29.431Z,10.00
2022-12-23T09:52:00.244Z,9.94
2022-12-23T09:54:40.895Z,10.14
2022-12-23T09:57:20.109Z,10.08
2022-12-23T10:00:02.008Z,9.98
2022-12-23T10:02:42.778Z,10.12
2022-12-23T10:05:24.381Z,10.15
2022-12-23T10:07:55.513Z,10.11
2022-12-23T10:10:38.102Z,10.07
2022-12-23T10:13:17.686Z,10.15
2022-12-23T10:15:50.887Z,10.15
2022-12-23T10:18:22.617Z,10.24
2022-12-23T10:20:59.261Z,10.24
2022-12-23T10:23:33.785Z,10.40
2022-12-23T10:26:12.292Z,10.55
2022-12-23T10:28:40.971Z,10.55
2022-12-23T10:31:39.165Z,10.51
2022-12-23T10:34:15.251Z,10.53
2022-12-23T10:36:50.456Z,10.60
2022-12-23T10:39:28.326Z,10.58
2022-12-23T10:42:13.125Z,10.60
2022-12-23T10:44:54.155Z,10.65
2022-12-23T10:47:36.533Z,10.59
2022-12-23T10:50:26.021Z,10.56
2022-12-23T10:53:00.442Z,10.40
2022-12-23T10:55:34.109Z,10.24
2022-12-23T10:58:09.720Z,10.25
2022-12-23T11:00:44.714Z,10.25
2022-12-23T11:03:18.783Z,10.34
2022-12-23T11:05:48.687Z,10.34
2022-12-23T11:08:20.574Z,10.44
2022-12-23T11:10:47.421Z,10.49
2022-12-23T11:13:32.520Z,10.42
2022-12-23T11:16:13.988Z,10.43
2022-12-23T11:18:54.581Z,10.54
2022-12-23T11:21:24.649Z,10.46
2022-12-23T11:24:08.190Z,10.40
2022-12-23T11:26:35.572Z,10.41
2022-12-23T11:29:16.888Z,10.49
2022-12-23T11:31:44.365Z,10.71
2022-12-23T11:34:26.249Z,10.76
2022-12-23T11:37:01.589Z,10.66
2022-12-23T11:39:33.965Z,10.63
2022-12-23T11:42:13.538Z,10.71
2022-12-23T11:44:46.801Z,10.85
2022-12-23T11:47:29.070Z,11.05
2022-12-23T11:50:04.027Z,11.11
2022-12-23T11:52:32.626Z,11.11
2022-12-23T11:55:01.827Z,11.10
2022-12-23T11:57:41.737Z,11.15
2022-12-23T12:00:20.634Z,11.17
2022-12-23T12:02:51.063Z,11.26
2022-12-23T12:05:32.951Z,11.30
2022-12-23T12:08:08.578Z,11.35
2022-12-23T12:10:39.563Z,11.60
2022-12-23T12:13:20.166Z,11.65
2022-12-23T12:15:55.769Z,11.65
2022-12-23T12:18:23.670Z,11.58
2022-12-23T12:20:53.788Z,11.69
2022-12-23T12:23:25.520Z,11.72
2022-12-23T12:25:56.663Z,11.76
2022-12-23T12:28:26.114Z,11.62
2022-12-23T12:31:05.755Z,11.51
2022-12-23T12:33:40.334Z,11.32
2022-12-23T12:36:18.785Z,11.34
2022-12-23T12:38:48.897Z,11.31
2022-12-23T12:41:28.231Z,11.40
2022-12-23T12:44:00.061Z,11.40
2022-12-23T12:46:33.987Z,11.40
2022-12-23T12:49:09.172Z,11.46
2022-12-23T12:52:04.023Z,11.68
2022-12-23T12:54:39.522Z,11.84
2022-12-23T12:57:14.538Z,11.94
2022-12-23T12:59:43.108Z,12.02
2022-12-23T13:02:38.689Z,12.05
2022-12-23T13:05:19.936Z,12.07
2022-12-23T13:08:12.581Z,12.08
2022-12-23T13:10:47.055Z,12.08
2022-12-23T13:13:32.363Z,12.04
2022-12-23T13:16:04.169Z,11.84
2022-12-23T13:18:47.260Z,11.65
2022-12-23T13:21:24.207Z,11.61
2022-12-23T13:24:04.386Z,11.65
2022-12-23T13:26:38.617Z,11.62
2022-12-23T13:29:35.933Z,11.65
2022-12-23T13:32:12.520Z,11.73
2022-12-23T13:34:54.599Z,11.58
2022-12-23T13:37:29.174Z,11.55
2022-12-23T13:40:03.446Z,11.42
2022-12-23T13:42:37.823Z,11.33
2022-12-23T13:45:13.702Z,11.29
2022-12-23T13:47:59.666Z,11.31
2022-12-23T13:50:44.039Z,11.28
2022-12-23T13:53:20.684Z,11.26
2022-12-23T13:56:01.469Z,11.27
2022-12-23T13:58:33.457Z,11.34
2022-12-23T14:01:22.750Z,11.31
2022-12-23T14:03:51.014Z,11.21
2022-12-23T14:06:43.916Z,11.28
2022-12-23T14:09:17.047Z,11.39
2022-12-23T14:11:47.963Z,11.36
2022-12-23T14:14:22.591Z,11.32
2022-12-23T14:17:01.003Z,11.35
2022-12-23T14:19:57.798Z,11.40
2022-12-23T14:22:57.215Z,11.30
2022-12-23T14:25:49.139Z,11.33
2022-12-23T14:28:47.310Z,11.31
2022-12-23T14:31:41.823Z,11.28
2022-12-23T14:34:28.968Z,11.16
2022-12-23T14:37:16.995Z,11.17
2022-12-23T14:39:47.943Z,11.18
2022-12-23T14:42:34.244Z,11.22
2022-12-23T14:45:30.115Z,11.18
2022-12-23T14:47:57.085Z,11.02
2022-12-23T14:50:41.881Z,10.88
2022-12-23T14:53:27.346Z,10.90
2022-12-23T14:56:35.691Z,10.91
2022-12-23T14:59:22.220Z,10.88
2022-12-23T15:01:52.890Z,10.75
2022-12-23T15:04:26.014Z,10.50
2022-12-23T15:06:57.270Z,10.60
2022-12-23T15:09:30.523Z,10.55
2022-12-23T15:12:05.108Z,10.50
2022-12-23T15:14:35.720Z,10.47
2022-12-23T15:17:15.595Z,10.36
2022-12-23T15:19:47.782Z,10.40
2022-12-23T15:22:22.706Z,10.41
2022-12-23T15:24:52.588Z,10.43
2022-12-23T15:27:30.028Z,10.33
2022-12-23T15:29:57.807Z,10.38
2022-12-23T15:32:26.340Z,10.42
2022-12-23T15:34:59.125Z,10.46
2022-12-23T15:37:29.292Z,10.49
2022-12-23T15:40:06.241Z,10.47
2022-12-23T15:42:38.675Z,10.40
2022-12-23T15:45:34.455Z,10.43
2022-12-23T15:48:02.955Z,10.40
2022-12-23T15:50:40.293Z,10.42
2022-12-23T15:53:10.089Z,10.46
2022-12-23T15:55:40.698Z,10.54
2022-12-23T15:58:18.809Z,10.50
2022-12-23T16:00:54.543Z,10.42
2022-12-23T16:03:26.631Z,10.38
2022-12-23T16:06:10.399Z,10.37
2022-12-23T16:08:38.473Z,10.30
2022-12-23T16:11:13.452Z,10.26
2022-12-23T16:13:58.025Z,10.22
2022-12-23T16:16:40.242Z,10.26
2022-12-23T16:19:40.987Z,10.24
2022-12-23T16:22:18.087Z,10.23
2022-12-23T16:24:47.846Z,10.19
2022-12-23T16:27:17.269Z,10.13
2022-12-23T16:29:50.954Z,10.16
2022-12-23T16:32:19.513Z,10.18
2022-12-23T16:34:51.327Z,10.19
2022-12-23T16:37:18.317Z,10.21
2022-12-23T16:39:48.335Z,10.28
2022-12-23T16:42:15.213Z,10.33
2022-12-23T16:44:46.027Z,10.36
2022-12-23T16:47:17.432Z,10.24
2022-12-23T16:49:45.098Z,10.28
2022-12-23T16:52:16.340Z,10.23
2022-12-23T16:54:45.781Z,10.31
2022-12-23T16:57:12.772Z,10.36
2022-12-23T16:59:41.211Z,10.33
2022-12-23T17:02:18.548Z,10.37
2022-12-23T17:04:46.122Z,10.42
2022-12-23T17:07:24.279Z,10.33
2022-12-23T17:09:56.067Z,10.39
2022-12-23T17:12:30.509Z,10.36
2022-12-23T17:14:57.607Z,10.34
2022-12-23T17:17:31.092Z,10.29
2022-12-23T17:20:01.426Z,10.29
2022-12-23T17:22:34.631Z,10.26
2022-12-23T17:25:02.064Z,10.27
2022-12-23T17:27:32.507Z,10.30
2022-12-23T17:30:03.062Z,10.29
2022-12-23T17:32:31.851Z,10.17
2022-12-23T17:35:00.321Z,10.20
2022-12-23T17:37:28.606Z,10.16
2022-12-23T17:39:55.878Z,10.18
2022-12-23T17:42:25.804Z,10.16
2022-12-23T17:44:58.211Z,10.18
2022-12-23T17:47:31.124Z,10.22
2022-12-23T17:49:59.821Z,10.21
2022-12-23T17:52:32.861Z,10.21
2022-12-23T17:55:06.316Z,10.23
2022-12-23T17:57:38.779Z,10.22
2022-12-23T18:00:08.473Z,10.20
2022-12-23T18:02:35.536Z,10.19
2022-12-23T18:05:19.362Z,10.22
2022-12-23T18:07:46.392Z,10.21
2022-12-23T18:10:16.559Z,10.17
2022-12-23T18:12:47.649Z,10.17
2022-12-23T18:15:22.778Z,10.15
2022-12-23T18:18:01.671Z,10.15
2022-12-23T18:20:33.206Z,10.15
2022-12-23T18:23:02.548Z,10.15
2022-12-23T18:25:29.934Z,10.18
2022-12-23T18:28:01.021Z,10.18
2022-12-23T18:30:28.231Z,10.17
2022-12-23T18:32:55.215Z,10.15
2022-12-23T18:35:33.934Z,10.10
2022-12-23T18:38:06.512Z,10.08
2022-12-23T18:40:33.791Z,10.04
2022-12-23T18:43:01.094Z,10.04
2022-12-23T18:45:32.065Z,10.00
2022-12-23T18:47:59.214Z,9.98
2022-12-23T18:50:27.769Z,9.91
2022-12-23T18:52:56.419Z,9.91
2022-12-23T18:55:24.223Z,9.81
2022-12-23T18:57:54.135Z,9.75
2022-12-23T19:00:23.079Z,9.61
2022-12-23T19:02:52.632Z,9.62
2022-12-23T19:05:22.235Z,9.60
2022-12-23T19:07:52.019Z,9.51
2022-12-23T19:10:29.018Z,9.51
2022-12-23T19:12:56.476Z,9.44
2022-12-23T19:15:26.963Z,9.38
2022-12-23T19:17:56.586Z,9.38
2022-12-23T19:20:26.084Z,9.39
2022-12-23T19:22:53.072Z,9.37
2022-12-23T19:25:24.422Z,9.40
2022-12-23T19:27:54.097Z,9.36
2022-12-23T19:30:21.465Z,9.34
2022-12-23T19:32:51.714Z,9.30
2022-12-23T19:35:19.592Z,9.30
2022-12-23T19:37:46.553Z,9.32
2022-12-23T19:40:13.872Z,9.30
2022-12-23T19:42:42.368Z,9.17
2022-12-23T19:45:10.832Z,9.13
2022-12-23T19:47:38.816Z,9.10
2022-12-23T19:50:07.749Z,9.06
2022-12-23T19:52:39.448Z,9.03
2022-12-23T19:55:13.164Z,8.96
2022-12-23T19:57:42.788Z,8.97
2022-12-23T20:00:13.256Z,8.91
2022-12-23T20:02:42.668Z,8.87
2022-12-23T20:05:10.362Z,8.80
2022-12-23T20:07:37.532Z,8.77
2022-12-23T20:10:05.930Z,8.76
2022-12-23T20:12:33.115Z,8.75
2022-12-23T20:15:02.815Z,8.71
2022-12-23T20:17:32.506Z,8.67
2022-12-23T20:19:59.760Z,8.63
2022-12-23T20:22:31.411Z,8.59
2022-12-23T20:24:59.449Z,8.56
2022-12-23T20:27:28.212Z,8.54
2022-12-23T20:29:55.657Z,8.48
2022-12-23T20:32:22.619Z,8.33
2022-12-23T20:34:51.237Z,8.32
2022-12-23T20:37:18.152Z,8.32
2022-12-23T20:39:45.297Z,8.32
2022-12-23T20:42:12.252Z,8.27
2022-12-23T20:44:42.608Z,8.23
2022-12-23T20:47:09.819Z,8.17
2022-12-23T20:49:37.223Z,8.16
2022-12-23T20:52:05.650Z,8.13
2022-12-23T20:54:34.044Z,8.15
2022-12-23T20:57:03.431Z,8.10
2022-12-23T20:59:30.729Z,8.11
2022-12-23T21:01:59.180Z,8.11
2022-12-23T21:04:30.492Z,8.13
2022-12-23T21:06:57.432Z,8.13
2022-12-23T21:09:26.025Z,8.11
2022-12-23T21:11:52.930Z,8.09
2022-12-23T21:14:20.170Z,8.04
2022-12-23T21:16:47.310Z,8.00
2022-12-23T21:19:16.909Z,7.94
2022-12-23T21:21:45.012Z,7.90
2022-12-23T21:24:15.177Z,7.86
2022-12-23T21:26:50.259Z,7.77
2022-12-23T21:29:21.632Z,7.71
2022-12-23T21:31:48.670Z,7.72
2022-12-23T21:34:18.069Z,7.75
2022-12-23T21:36:45.591Z,7.76
2022-12-23T21:39:16.955Z,7.70
2022-12-23T21:41:48.441Z,7.62
2022-12-23T21:44:15.791Z,7.62
2022-12-23T21:46:43.018Z,7.57
2022-12-23T21:49:11.149Z,7.63
2022-12-23T21:51:42.462Z,7.62
2022-12-23T21:54:13.481Z,7.63
2022-12-23T21:56:42.724Z,7.66
2022-12-23T21:59:13.884Z,7.67
2022-12-23T22:01:44.228Z,7.67
2022-12-23T22:04:11.945Z,7.67
2022-12-23T22:06:45.455Z,7.62
2022-12-23T22:09:14.909Z,7.59
2022-12-23T22:11:42.656Z,7.57
2022-12-23T22:14:15.141Z,7.55
2022-12-23T22:16:42.268Z,7.57
2022-12-23T22:19:11.272Z,7.59
2022-12-23T22:21:39.790Z,7.62
2022-12-23T22:24:12.023Z,7.62
2022-12-23T22:26:40.032Z,7.65
2022-12-23T22:29:12.278Z,7.67
2022-12-23T22:31:42.039Z,7.65
2022-12-23T22:34:15.568Z,7.65
2022-12-23T22:36:45.879Z,7.62
2022-12-23T22:39:20.709Z,7.57
2022-12-23T22:41:48.772Z,7.58
2022-12-23T22:44:21.743Z,7.55
2022-12-23T22:46:48.820Z,7.51
2022-12-23T22:49:16.795Z,7.53
2022-12-23T22:51:44.022Z,7.48
2022-12-23T22:54:11.405Z,7.42
2022-12-23T22:56:38.439Z,7.37
2022-12-23T22:59:08.592Z,7.32
2022-12-23T23:01:40.763Z,7.28
2022-12-23T23:04:10.048Z,7.07
2022-12-23T23:06:44.741Z,7.19
2022-12-23T23:09:14.326Z,7.13
2022-12-23T23:11:44.513Z,7.07
2022-12-23T23:14:15.058Z,7.08
2022-12-23T23:16:43.381Z,7.13
2022-12-23T23:19:15.050Z,7.14
2022-12-23T23:21:43.019Z,7.12
2022-12-23T23:24:11.955Z,7.13
2022-12-23T23:26:38.882Z,7.06
2022-12-23T23:29:06.008Z,7.03
2022-12-23T23:31:42.345Z,7.07
2022-12-23T23:34:11.844Z,7.14
2022-12-23T23:36:38.818Z,7.20
2022-12-23T23:39:06.052Z,7.22
2022-12-23T23:41:36.360Z,7.25
2022-12-23T23:44:08.271Z,7.33
2022-12-23T23:46:35.430Z,7.38
2022-12-23T23:49:03.039Z,7.38
2022-12-23T23:51:31.341Z,7.28
2022-12-23T23:53:58.560Z,7.27
2022-12-23T23:56:33.921Z,7.26
2022-12-23T23:59:05.360Z,7.17
